createdAt,value
2022-11-21T00:00:46.188Z,100.00
2022-11-21T00:03:14.641Z,100.00
2022-11-21T00:05:44.286Z,100.00
2022-11-21T00:08:13.443Z,100.00
2022-11-21T00:10:42.061Z,100.00
2022-11-21T00:13:14.492Z,100.00
2022-11-21T00:15:42.644Z,100.00
2022-11-21T00:18:11.721Z,100.00
2022-11-21T00:20:40.005Z,100.00
2022-11-21T00:23:08.240Z,100.00
2022-11-21T00:25:36.625Z,100.00
2022-11-21T00:28:05.049Z,100.00
2022-11-21T00:30:34.601Z,100.00
2022-11-21T00:33:02.665Z,100.00
2022-11-21T00:35:31.981Z,100.00
2022-11-21T00:38:00.072Z,100.00
2022-11-21T00:40:28.124Z,100.00
2022-11-21T00:42:56.178Z,100.00
2022-11-21T00:45:24.761Z,100.00
2022-11-21T00:47:54.222Z,100.00
2022-11-21T00:50:22.207Z,100.00
2022-11-21T00:52:50.236Z,100.00
2022-11-21T00:55:18.257Z,100.00
2022-11-21T00:57:46.296Z,100.00
2022-11-21T01:00:15.383Z,100.00
2022-11-21T01:02:43.413Z,100.00
2022-11-21T01:05:12.806Z,100.00
2022-11-21T01:07:40.926Z,100.00
2022-11-21T01:10:09.543Z,100.00
2022-11-21T01:12:37.530Z,100.00
2022-11-21T01:15:06.352Z,100.00
2022-11-21T01:17:34.929Z,100.00
2022-11-21T01:20:02.979Z,100.00
2022-11-21T01:22:32.339Z,100.00
2022-11-21T01:25:00.379Z,100.00
2022-11-21T01:27:28.404Z,100.00
2022-11-21T01:29:56.538Z,100.00
2022-11-21T01:32:24.694Z,100.00
2022-11-21T01:34:52.843Z,100.00
2022-11-21T01:37:20.875Z,100.00
2022-11-21T01:39:50.418Z,100.00
2022-11-21T01:42:18.549Z,100.00
2022-11-21T01:44:51.728Z,100.00
2022-11-21T01:47:20.730Z,100.00
2022-11-21T01:49:49.312Z,100.00
2022-11-21T01:52:20.361Z,100.00
2022-11-21T01:54:52.443Z,100.00
2022-11-21T01:57:22.516Z,100.00
2022-11-21T01:59:53.902Z,100.00
2022-11-21T02:02:26.625Z,100.00
2022-11-21T02:04:54.977Z,100.00
2022-11-21T02:07:24.311Z,100.00
2022-11-21T02:09:55.942Z,100.00
2022-11-21T02:12:27.679Z,100.00
2022-11-21T02:14:56.109Z,100.00
2022-11-21T02:17:24.171Z,100.00
2022-11-21T02:19:55.993Z,100.00
2022-11-21T02:22:30.074Z,100.00
2022-11-21T02:25:05.697Z,100.00
2022-11-21T02:27:33.880Z,100.00
2022-11-21T02:30:03.086Z,100.00
2022-11-21T02:32:34.671Z,100.00
2022-11-21T02:35:03.212Z,100.00
2022-11-21T02:37:32.282Z,100.00
2022-11-21T02:40:02.203Z,100.00
2022-11-21T02:42:34.638Z,100.00
2022-11-21T02:45:07.809Z,100.00
2022-11-21T02:47:36.751Z,100.00
2022-11-21T02:50:11.599Z,100.00
2022-11-21T02:52:39.582Z,100.00
2022-11-21T02:55:08.294Z,100.00
2022-11-21T02:57:37.716Z,100.00
2022-11-21T03:00:06.852Z,100.00
2022-11-21T03:02:34.984Z,100.00
2022-11-21T03:05:03.180Z,100.00
2022-11-21T03:07:31.303Z,100.00
2022-11-21T03:09:59.415Z,100.00
2022-11-21T03:12:27.432Z,100.00
2022-11-21T03:14:56.924Z,100.00
2022-11-21T03:17:24.921Z,100.00
2022-11-21T03:19:52.909Z,100.00
2022-11-21T03:22:20.931Z,100.00
2022-11-21T03:24:48.967Z,100.00
2022-11-21T03:27:17.032Z,100.00
2022-11-21T03:29:45.070Z,100.00
2022-11-21T03:32:14.439Z,100.00
2022-11-21T03:34:42.436Z,100.00
2022-11-21T03:37:10.453Z,100.00
2022-11-21T03:39:39.036Z,100.00
2022-11-21T03:42:07.122Z,100.00
2022-11-21T03:44:35.118Z,100.00
2022-11-21T03:47:03.498Z,100.00
2022-11-21T03:49:33.054Z,100.00
2022-11-21T03:52:01.101Z,100.00
2022-11-21T03:54:29.546Z,100.00
2022-11-21T03:56:57.751Z,100.00
2022-11-21T03:59:26.237Z,100.00
2022-11-21T04:01:54.289Z,100.00
2022-11-21T04:04:22.277Z,100.00
2022-11-21T04:06:51.814Z,100.00
2022-11-21T04:09:19.889Z,100.00
2022-11-21T04:11:47.983Z,100.00
2022-11-21T04:14:16.961Z,100.00
2022-11-21T04:16:45.011Z,100.00
2022-11-21T04:19:13.018Z,100.00
2022-11-21T04:21:41.069Z,100.00
2022-11-21T04:24:10.776Z,100.00
2022-11-21T04:26:38.843Z,100.00
2022-11-21T04:29:06.962Z,100.00
2022-11-21T04:31:34.994Z,100.00
2022-11-21T04:34:03.009Z,100.00
2022-11-21T04:36:31.234Z,100.00
2022-11-21T04:38:59.257Z,100.00
2022-11-21T04:41:28.638Z,97.53
2022-11-21T04:43:56.780Z,97.05
2022-11-21T04:46:24.801Z,97.53
2022-11-21T04:48:52.901Z,97.71
2022-11-21T04:51:20.926Z,99.44
2022-11-21T04:53:48.995Z,100.00
2022-11-21T04:56:17.187Z,100.00
2022-11-21T04:58:46.969Z,100.00
2022-11-21T05:01:15.091Z,100.00
2022-11-21T05:03:43.247Z,100.00
2022-11-21T05:06:11.214Z,100.00
2022-11-21T05:08:39.254Z,100.00
2022-11-21T05:11:24.744Z,100.00
2022-11-21T05:13:55.423Z,100.00
2022-11-21T05:16:23.410Z,100.00
2022-11-21T05:18:51.444Z,100.00
2022-11-21T05:21:19.533Z,100.00
2022-11-21T05:23:47.590Z,100.00
2022-11-21T05:26:15.984Z,100.00
2022-11-21T05:28:44.141Z,100.00
2022-11-21T05:31:13.512Z,100.00
2022-11-21T05:33:41.553Z,100.00
2022-11-21T05:36:09.579Z,100.00
2022-11-21T05:38:37.596Z,100.00
2022-11-21T05:41:05.595Z,100.00
2022-11-21T05:43:49.089Z,100.00
2022-11-21T05:46:20.315Z,100.00
2022-11-21T05:48:49.245Z,99.91
2022-11-21T05:51:18.393Z,100.00
2022-11-21T05:53:46.645Z,100.00
2022-11-21T05:56:16.057Z,100.00
2022-11-21T05:58:44.167Z,100.00
2022-11-21T06:01:14.606Z,100.00
2022-11-21T06:03:43.271Z,100.00
2022-11-21T06:06:12.617Z,99.52
2022-11-21T06:08:42.409Z,98.64
2022-11-21T06:11:12.210Z,96.50
2022-11-21T06:13:40.431Z,96.06
2022-11-21T06:16:10.724Z,96.41
2022-11-21T06:18:39.942Z,96.19
2022-11-21T06:21:10.456Z,95.84
2022-11-21T06:23:38.472Z,95.85
2022-11-21T06:26:08.370Z,95.17
2022-11-21T06:28:37.845Z,94.74
2022-11-21T06:31:06.627Z,95.38
2022-11-21T06:33:35.919Z,95.79
2022-11-21T06:36:04.703Z,93.90
2022-11-21T06:38:34.800Z,93.45
2022-11-21T06:41:05.630Z,93.65
2022-11-21T06:43:33.689Z,94.29
2022-11-21T06:46:03.411Z,94.04
2022-11-21T06:48:31.495Z,94.62
2022-11-21T06:50:59.566Z,95.28
2022-11-21T06:53:27.675Z,96.56
2022-11-21T06:55:59.725Z,96.04
2022-11-21T06:58:27.866Z,95.04
2022-11-21T07:00:56.093Z,95.18
2022-11-21T07:03:24.252Z,95.42
2022-11-21T07:05:53.722Z,94.85
2022-11-21T07:08:21.720Z,95.86
2022-11-21T07:11:22.657Z,96.86
2022-11-21T07:13:39.170Z,97.37
2022-11-21T07:16:08.850Z,96.73
2022-11-21T07:18:37.549Z,96.57
2022-11-21T07:21:06.712Z,97.67
2022-11-21T07:23:35.775Z,96.48
2022-11-21T07:26:04.713Z,97.38
2022-11-21T07:28:33.307Z,97.27
2022-11-21T07:31:07.062Z,97.19
2022-11-21T07:33:38.313Z,97.34
2022-11-21T07:36:07.406Z,97.59
2022-11-21T07:38:35.471Z,96.64
2022-11-21T07:41:03.667Z,97.39
2022-11-21T07:43:31.693Z,97.05
2022-11-21T07:45:59.757Z,96.93
2022-11-21T07:48:29.214Z,96.98
2022-11-21T07:50:57.328Z,96.73
2022-11-21T07:53:25.364Z,97.81
2022-11-21T07:55:53.430Z,97.93
2022-11-21T07:58:21.510Z,97.59
2022-11-21T08:00:49.634Z,97.63
2022-11-21T08:03:17.703Z,97.69
2022-11-21T08:05:47.156Z,97.45
2022-11-21T08:08:15.480Z,96.98
2022-11-21T08:10:44.838Z,96.98
2022-11-21T08:13:13.898Z,96.67
2022-11-21T08:15:42.147Z,95.70
2022-11-21T08:18:11.807Z,94.81
2022-11-21T08:20:41.344Z,92.88
2022-11-21T08:23:12.523Z,93.46
2022-11-21T08:25:43.120Z,93.09
2022-11-21T08:28:12.872Z,92.44
2022-11-21T08:30:41.940Z,92.71
2022-11-21T08:33:10.139Z,93.16
2022-11-21T08:35:39.895Z,93.14
2022-11-21T08:38:08.197Z,91.99
2022-11-21T08:40:37.929Z,92.00
2022-11-21T08:43:07.702Z,91.97
2022-11-21T08:45:36.761Z,91.14
2022-11-21T08:48:05.251Z,88.88
2022-11-21T08:50:33.383Z,88.48
2022-11-21T08:53:02.457Z,85.34
2022-11-21T08:55:31.056Z,85.66
2022-11-21T08:58:00.580Z,85.87
2022-11-21T09:00:28.681Z,84.79
2022-11-21T09:02:56.801Z,85.54
2022-11-21T09:05:24.811Z,85.96
2022-11-21T09:07:59.499Z,85.29
2022-11-21T09:10:29.074Z,84.67
2022-11-21T09:13:00.296Z,84.94
2022-11-21T09:15:42.264Z,85.50
2022-11-21T09:18:12.612Z,86.13
2022-11-21T09:20:42.226Z,86.19
2022-11-21T09:23:12.212Z,84.66
2022-11-21T09:25:40.372Z,84.83
2022-11-21T09:28:11.145Z,83.82
2022-11-21T09:30:39.808Z,83.64
2022-11-21T09:33:09.476Z,83.77
2022-11-21T09:35:37.685Z,81.46
2022-11-21T09:38:06.175Z,81.47
2022-11-21T09:40:35.664Z,81.54
2022-11-21T09:43:31.631Z,81.52
2022-11-21T09:46:04.833Z,79.78
2022-11-21T09:48:36.130Z,80.52
2022-11-21T09:51:09.036Z,78.91
2022-11-21T09:53:39.156Z,78.85
2022-11-21T09:56:10.087Z,75.83
2022-11-21T09:58:43.160Z,74.41
2022-11-21T10:01:12.201Z,72.68
2022-11-21T10:03:43.028Z,72.55
2022-11-21T10:06:19.729Z,71.76
2022-11-21T10:08:56.362Z,70.70
2022-11-21T10:11:35.148Z,70.91
2022-11-21T10:14:13.237Z,70.72
2022-11-21T10:16:45.967Z,70.59
2022-11-21T10:19:23.299Z,70.26
2022-11-21T10:22:09.835Z,70.19
2022-11-21T10:24:46.147Z,69.70
2022-11-21T10:27:17.290Z,69.40
2022-11-21T10:29:50.683Z,69.29
2022-11-21T10:32:24.848Z,68.67
2022-11-21T10:34:56.440Z,68.48
2022-11-21T10:37:32.408Z,68.20
2022-11-21T10:40:09.402Z,68.37
2022-11-21T10:42:40.001Z,68.75
2022-11-21T10:45:19.385Z,68.61
2022-11-21T10:47:48.941Z,68.70
2022-11-21T10:50:30.148Z,69.20
2022-11-21T10:53:27.647Z,69.08
2022-11-21T10:56:02.016Z,68.64
2022-11-21T10:58:45.484Z,69.44
2022-11-21T11:01:23.801Z,69.76
2022-11-21T11:04:41.598Z,70.33
2022-11-21T11:07:22.016Z,70.34
2022-11-21T11:09:52.429Z,71.02
2022-11-21T11:12:56.084Z,70.87
2022-11-21T11:15:25.322Z,70.60
2022-11-21T11:17:57.825Z,70.94
2022-11-21T11:20:39.737Z,70.79
2022-11-21T11:23:22.379Z,70.96
2022-11-21T11:25:51.949Z,71.55
2022-11-21T11:28:29.325Z,71.98
2022-11-21T11:30:59.101Z,72.85
2022-11-21T11:33:51.817Z,73.65
2022-11-21T11:36:32.512Z,75.22
2022-11-21T11:39:02.033Z,76.94
2022-11-21T11:42:35.597Z,77.73
2022-11-21T11:45:47.024Z,78.38
2022-11-21T11:48:16.035Z,78.90
2022-11-21T11:50:49.675Z,78.58
2022-11-21T11:53:20.079Z,78.55
2022-11-21T11:55:53.074Z,78.83
2022-11-21T11:58:26.340Z,79.61
2022-11-21T12:01:00.962Z,78.96
2022-11-21T12:03:35.686Z,78.78
2022-11-21T12:06:09.705Z,78.79
2022-11-21T12:08:43.157Z,78.30
2022-11-21T12:11:44.325Z,78.04
2022-11-21T12:14:35.810Z,77.22
2022-11-21T12:17:06.680Z,77.32
2022-11-21T12:19:35.542Z,77.38
2022-11-21T12:22:06.615Z,77.13
2022-11-21T12:24:39.779Z,77.10
2022-11-21T12:27:21.439Z,77.17
2022-11-21T12:30:00.390Z,77.05
2022-11-21T12:32:40.081Z,77.17
2022-11-21T12:35:43.615Z,77.13
2022-11-21T12:38:22.631Z,77.83
2022-11-21T12:40:59.123Z,77.53
2022-11-21T12:43:34.523Z,77.72
2022-11-21T12:46:09.149Z,78.11
2022-11-21T12:49:02.027Z,77.21
2022-11-21T12:52:11.265Z,77.42
2022-11-21T12:55:10.952Z,77.12
2022-11-21T12:57:48.000Z,77.31
2022-11-21T13:00:20.117Z,77.16
2022-11-21T13:03:33.455Z,77.69
2022-11-21T13:06:03.063Z,77.68
2022-11-21T13:08:32.484Z,77.52
2022-11-21T13:11:25.509Z,78.32
2022-11-21T13:14:00.584Z,78.07
2022-11-21T13:16:37.792Z,77.89
2022-11-21T13:19:14.148Z,78.11
2022-11-21T13:21:43.143Z,77.92
2022-11-21T13:24:11.693Z,76.88
2022-11-21T13:26:53.296Z,77.58
2022-11-21T13:29:21.334Z,77.37
2022-11-21T13:31:49.363Z,77.62
2022-11-21T13:34:38.397Z,78.23
2022-11-21T13:37:07.080Z,78.48
2022-11-21T13:39:39.189Z,78.61
2022-11-21T13:42:33.213Z,77.73
2022-11-21T13:45:40.681Z,78.06
2022-11-21T13:48:53.427Z,78.05
2022-11-21T13:51:50.745Z,78.39
2022-11-21T13:54:50.592Z,78.21
2022-11-21T13:57:51.439Z,79.00
2022-11-21T14:00:29.648Z,79.21
2022-11-21T14:03:30.387Z,79.28
2022-11-21T14:06:19.597Z,79.21
2022-11-21T14:09:06.400Z,79.39
2022-11-21T14:11:38.108Z,79.95
2022-11-21T14:14:06.228Z,79.60
2022-11-21T14:16:37.977Z,80.29
2022-11-21T14:19:06.628Z,80.29
2022-11-21T14:21:35.792Z,79.70
2022-11-21T14:24:06.443Z,78.79
2022-11-21T14:26:47.214Z,79.26
2022-11-21T14:29:19.345Z,77.94
2022-11-21T14:31:49.584Z,78.58
2022-11-21T14:34:26.276Z,77.79
2022-11-21T14:36:54.775Z,78.37
2022-11-21T14:39:37.175Z,78.35
2022-11-21T14:42:13.581Z,79.00
2022-11-21T14:44:41.781Z,79.40
2022-11-21T14:47:21.223Z,78.86
2022-11-21T14:49:52.295Z,80.24
2022-11-21T14:52:24.531Z,80.76
2022-11-21T14:57:43.656Z,79.77
2022-11-21T15:00:51.553Z,80.52
2022-11-21T15:03:23.888Z,80.88
2022-11-21T15:06:04.584Z,80.14
2022-11-21T15:11:24.765Z,79.66
2022-11-21T15:16:44.959Z,80.62
2022-11-21T15:19:21.099Z,80.30
2022-11-21T15:21:51.681Z,80.21
2022-11-21T15:24:29.497Z,79.98
2022-11-21T15:26:57.705Z,81.08
2022-11-21T15:29:25.961Z,80.42
2022-11-21T15:32:15.769Z,81.02
2022-11-21T15:34:47.328Z,82.25
2022-11-21T15:37:17.937Z,82.30
2022-11-21T15:39:48.268Z,82.62
2022-11-21T15:42:40.496Z,82.71
2022-11-21T15:45:26.963Z,83.09
2022-11-21T15:47:56.735Z,83.55
2022-11-21T15:50:26.524Z,83.85
2022-11-21T15:52:54.857Z,83.95
2022-11-21T15:55:26.384Z,83.32
2022-11-21T15:57:54.445Z,83.43
2022-11-21T16:00:22.986Z,83.42
2022-11-21T16:02:51.208Z,83.92
2022-11-21T16:05:19.287Z,84.29
2022-11-21T16:07:48.978Z,83.76
2022-11-21T16:10:25.912Z,84.70
2022-11-21T16:12:55.497Z,84.28
2022-11-21T16:15:24.037Z,84.81
2022-11-21T16:17:53.101Z,85.56
2022-11-21T16:20:21.241Z,85.57
2022-11-21T16:22:51.335Z,84.89
2022-11-21T16:25:19.676Z,85.06
2022-11-21T16:27:48.328Z,84.85
2022-11-21T16:30:16.841Z,85.03
2022-11-21T16:32:44.852Z,84.52
2022-11-21T16:35:13.351Z,84.97
2022-11-21T16:37:42.347Z,85.57
2022-11-21T16:40:12.846Z,85.83
2022-11-21T16:42:41.663Z,86.42
2022-11-21T16:45:11.706Z,86.48
2022-11-21T16:47:43.099Z,86.91
2022-11-21T16:50:16.234Z,87.57
2022-11-21T16:52:44.680Z,87.41
2022-11-21T16:55:16.538Z,87.71
2022-11-21T16:57:45.696Z,87.50
2022-11-21T17:00:16.897Z,87.48
2022-11-21T17:02:47.149Z,87.57
2022-11-21T17:05:15.634Z,88.29
2022-11-21T17:07:45.600Z,88.43
2022-11-21T17:10:16.087Z,89.03
2022-11-21T17:12:45.490Z,89.10
2022-11-21T17:15:16.111Z,89.83
2022-11-21T17:17:44.341Z,90.20
2022-11-21T17:20:13.192Z,91.05
2022-11-21T17:22:50.602Z,90.88
2022-11-21T17:25:22.600Z,89.88
2022-11-21T17:27:52.870Z,90.42
2022-11-21T17:30:22.051Z,91.44
2022-11-21T17:32:50.920Z,91.02
2022-11-21T17:35:20.346Z,91.40
2022-11-21T17:37:49.736Z,91.23
2022-11-21T17:40:18.535Z,91.22
2022-11-21T17:42:48.610Z,91.21
2022-11-21T17:45:17.908Z,90.74
2022-11-21T17:47:47.246Z,90.02
2022-11-21T17:50:16.324Z,90.36
2022-11-21T17:52:47.043Z,90.17
2022-11-21T17:55:16.859Z,89.58
2022-11-21T17:57:46.942Z,89.75
2022-11-21T18:00:19.603Z,90.62
2022-11-21T18:02:49.423Z,91.49
2022-11-21T18:05:18.404Z,91.50
2022-11-21T18:07:50.649Z,92.77
2022-11-21T18:10:42.235Z,92.18
2022-11-21T18:13:09.569Z,93.77
2022-11-21T18:15:39.545Z,93.75
2022-11-21T18:18:08.813Z,94.55
2022-11-21T18:20:38.134Z,94.78
2022-11-21T18:23:07.573Z,94.99
2022-11-21T18:25:37.334Z,95.71
2022-11-21T18:28:07.094Z,97.41
2022-11-21T18:30:36.978Z,97.96
2022-11-21T18:33:08.293Z,98.96
2022-11-21T18:35:37.768Z,98.65
2022-11-21T18:38:06.582Z,100.00
2022-11-21T18:40:36.164Z,100.00
2022-11-21T18:43:09.518Z,100.00
2022-11-21T18:45:39.342Z,100.00
2022-11-21T18:48:10.476Z,100.00
2022-11-21T18:50:40.273Z,100.00
2022-11-21T18:53:11.249Z,100.00
2022-11-21T18:55:41.645Z,100.00
2022-11-21T18:58:12.096Z,100.00
2022-11-21T19:00:49.613Z,100.00
2022-11-21T19:03:29.311Z,100.00
2022-11-21T19:06:11.250Z,100.00
2022-11-21T19:08:44.611Z,100.00
2022-11-21T19:11:20.658Z,100.00
2022-11-21T19:13:51.863Z,100.00
2022-11-21T19:16:28.689Z,100.00
2022-11-21T19:19:32.624Z,100.00
2022-11-21T19:21:51.046Z,100.00
2022-11-21T19:24:21.615Z,100.00
2022-11-21T19:26:53.959Z,100.00
2022-11-21T19:29:23.624Z,100.00
2022-11-21T19:31:54.487Z,100.00
2022-11-21T19:34:26.099Z,100.00
2022-11-21T19:36:56.403Z,100.00
2022-11-21T19:39:32.435Z,100.00
2022-11-21T19:42:02.491Z,100.00
2022-11-21T19:44:33.551Z,100.00
2022-11-21T19:47:04.814Z,100.00
2022-11-21T19:49:37.377Z,100.00
2022-11-21T19:52:07.324Z,100.00
2022-11-21T19:54:40.979Z,100.00
2022-11-21T19:57:13.857Z,100.00
2022-11-21T19:59:47.017Z,100.00
2022-11-21T20:02:19.736Z,100.00
2022-11-21T20:04:51.993Z,100.00
2022-11-21T20:07:21.362Z,100.00
2022-11-21T20:09:52.757Z,100.00
2022-11-21T20:12:22.995Z,100.00
2022-11-21T20:14:54.314Z,100.00
2022-11-21T20:17:26.097Z,100.00
2022-11-21T20:20:00.407Z,100.00
2022-11-21T20:22:30.538Z,100.00
2022-11-21T20:25:04.072Z,100.00
2022-11-21T20:27:33.624Z,100.00
2022-11-21T20:30:05.541Z,100.00
2022-11-21T20:32:36.432Z,100.00
2022-11-21T20:35:13.893Z,100.00
2022-11-21T20:37:43.769Z,100.00
2022-11-21T20:40:14.609Z,100.00
2022-11-21T20:42:45.724Z,100.00
2022-11-21T20:48:10.492Z,100.00
2022-11-21T20:51:50.959Z,100.00
2022-11-21T20:53:56.163Z,100.00
2022-11-21T20:56:29.612Z,100.00
2022-11-21T20:58:59.265Z,100.00
2022-11-21T21:01:30.001Z,100.00
2022-11-21T21:03:58.995Z,100.00
2022-11-21T21:06:29.782Z,100.00
2022-11-21T21:08:58.289Z,100.00
2022-11-21T21:11:50.806Z,100.00
2022-11-21T21:14:17.217Z,100.00
2022-11-21T21:16:47.944Z,100.00
2022-11-21T21:19:16.775Z,100.00
2022-11-21T21:21:48.514Z,100.00
2022-11-21T21:24:18.171Z,100.00
2022-11-21T21:26:50.154Z,100.00
2022-11-21T21:29:20.645Z,100.00
2022-11-21T21:31:52.345Z,100.00
2022-11-21T21:34:22.681Z,100.00
2022-11-21T21:36:53.619Z,100.00
2022-11-21T21:39:21.851Z,100.00
2022-11-21T21:41:53.454Z,100.00
2022-11-21T21:44:21.568Z,100.00
2022-11-21T21:46:51.017Z,100.00
2022-11-21T21:49:26.849Z,100.00
2022-11-21T21:51:57.610Z,100.00
2022-11-21T21:54:26.816Z,100.00
2022-11-21T21:56:56.532Z,100.00
2022-11-21T21:59:25.716Z,100.00
2022-11-21T22:01:57.235Z,100.00
2022-11-21T22:04:25.656Z,100.00
2022-11-21T22:06:55.011Z,100.00
2022-11-21T22:09:25.155Z,100.00
2022-11-21T22:11:54.132Z,100.00
2022-11-21T22:14:23.028Z,100.00
2022-11-21T22:16:53.093Z,100.00
2022-11-21T22:19:22.104Z,100.00
2022-11-21T22:21:51.819Z,100.00
2022-11-21T22:24:25.916Z,100.00
2022-11-21T22:26:57.091Z,100.00
2022-11-21T22:29:25.669Z,100.00
2022-11-21T22:31:54.818Z,100.00
2022-11-21T22:34:23.974Z,100.00
2022-11-21T22:36:53.387Z,100.00
2022-11-21T22:39:21.427Z,100.00
2022-11-21T22:41:51.162Z,100.00
2022-11-21T22:44:22.847Z,100.00
2022-11-21T22:46:52.554Z,100.00
2022-11-21T22:49:20.820Z,100.00
2022-11-21T22:51:50.137Z,100.00
2022-11-21T22:54:18.635Z,100.00
2022-11-21T22:57:00.645Z,100.00
2022-11-21T22:59:31.241Z,100.00
2022-11-21T23:02:00.902Z,100.00
2022-11-21T23:04:29.750Z,100.00
2022-11-21T23:06:57.902Z,100.00
2022-11-21T23:09:25.965Z,100.00
2022-11-21T23:11:54.039Z,100.00
2022-11-21T23:14:22.703Z,100.00
2022-11-21T23:16:53.629Z,100.00
2022-11-21T23:19:24.325Z,100.00
2022-11-21T23:21:54.815Z,100.00
2022-11-21T23:24:22.902Z,100.00
2022-11-21T23:26:52.016Z,100.00
2022-11-21T23:29:20.077Z,100.00
2022-11-21T23:31:49.199Z,100.00
2022-11-21T23:34:19.114Z,100.00
2022-11-21T23:36:48.447Z,100.00
2022-11-21T23:39:16.720Z,100.00
2022-11-21T23:41:46.135Z,100.00
2022-11-21T23:44:15.740Z,100.00
2022-11-21T23:46:45.409Z,100.00
2022-11-21T23:49:13.777Z,100.00
2022-11-21T23:51:44.389Z,100.00
2022-11-21T23:54:12.935Z,100.00
2022-11-21T23:56:42.055Z,100.00
2022-11-21T23:59:12.802Z,100.00
